Time;durP1;ratioP1;P1;durP2;ratioP2;P2;SDS_P1;SDS_P2;PMS_P1;PMS_P2;Temp;Humidity;BMP_temperature;BMP_pressure;BME280_temperature;BME280_humidity;BME280_pressure;Samples;Min_cycle;Max_cycle;Signal;HPM_P1;HPM_P2
2021/11/15 00:00:02;;;;;;;21.73;14.97;;;10.90;99.90;;;;;;5014080;28;20429;-57
2021/11/15 00:05:03;;;;;;;19.60;15.03;;;10.90;99.90;;;;;;5010769;28;20549;-59
2021/11/15 00:07:29;;;;;;;20.67;14.23;;;11.00;99.90;;;;;;5013212;28;20410;-58
2021/11/15 00:09:54;;;;;;;21.40;15.10;;;10.80;99.90;;;;;;5012614;28;20400;-57
2021/11/15 00:12:20;;;;;;;22.20;15.30;;;10.90;99.90;;;;;;5013429;28;20687;-59
2021/11/15 00:14:46;;;;;;;23.07;15.40;;;11.00;99.90;;;;;;5013647;28;20238;-58
2021/11/15 00:17:11;;;;;;;20.60;14.60;;;10.80;99.90;;;;;;5013731;28;20192;-58
2021/11/15 00:19:37;;;;;;;23.60;15.83;;;10.60;99.90;;;;;;5013476;28;20336;-59
2021/11/15 00:22:04;;;;;;;21.63;16.10;;;10.70;99.90;;;;;;5013959;28;20169;-58
2021/11/15 00:24:30;;;;;;;20.60;14.70;;;10.60;99.90;;;;;;5014208;28;20216;-59
2021/11/15 00:26:55;;;;;;;21.23;16.50;;;10.60;99.90;;;;;;5013530;28;20407;-59
2021/11/15 00:29:21;;;;;;;21.60;16.50;;;10.60;99.90;;;;;;5013431;28;20441;-58
2021/11/15 00:31:46;;;;;;;18.57;14.07;;;10.50;99.90;;;;;;5013511;28;20651;-58
2021/11/15 00:34:12;;;;;;;19.77;14.43;;;10.70;99.90;;;;;;5012991;28;20196;-58
2021/11/15 00:36:38;;;;;;;16.07;13.90;;;10.90;99.90;;;;;;5013086;28;20196;-53
2021/11/15 00:39:05;;;;;;;19.90;14.40;;;11.00;99.90;;;;;;5013240;28;20502;-52
2021/11/15 00:41:31;;;;;;;22.93;16.50;;;10.60;99.90;;;;;;5013560;28;20596;-54
2021/11/15 00:43:56;;;;;;;19.10;14.10;;;10.50;99.90;;;;;;5013304;28;20489;-55
2021/11/15 00:46:22;;;;;;;20.37;15.07;;;10.40;99.90;;;;;;5013700;28;20165;-57
2021/11/15 00:48:55;;;;;;;20.70;14.37;;;10.30;99.90;;;;;;5013413;28;20203;-59
2021/11/15 00:51:22;;;;;;;21.17;14.10;;;10.30;99.90;;;;;;5013306;28;20161;-56
2021/11/15 00:53:48;;;;;;;20.37;13.27;;;10.10;99.90;;;;;;5013161;28;20416;-56
2021/11/15 00:56:13;;;;;;;16.83;13.30;;;10.10;99.90;;;;;;5013445;28;20822;-57
2021/11/15 00:58:39;;;;;;;19.13;13.67;;;10.00;99.90;;;;;;5013548;28;20200;-59
2021/11/15 01:01:05;;;;;;;16.73;13.00;;;10.20;99.90;;;;;;5011810;28;20198;-58
2021/11/15 01:03:30;;;;;;;22.70;14.17;;;10.50;99.90;;;;;;5012690;28;20255;-54
2021/11/15 01:05:57;;;;;;;20.23;14.37;;;10.50;99.90;;;;;;5012816;28;20204;-57
2021/11/15 01:08:22;;;;;;;18.53;12.97;;;10.30;99.90;;;;;;5013458;28;20200;-58
2021/11/15 01:10:50;;;;;;;19.73;13.60;;;10.10;99.90;;;;;;5016959;28;20395;-56
2021/11/15 01:13:16;;;;;;;16.60;12.93;;;10.20;99.90;;;;;;5015479;28;20191;-55
2021/11/15 01:15:41;;;;;;;20.10;14.30;;;10.30;99.90;;;;;;5017000;28;20407;-59
2021/11/15 01:18:09;;;;;;;16.40;13.07;;;10.30;99.90;;;;;;5016296;28;20404;-56
2021/11/15 01:20:35;;;;;;;17.50;12.37;;;10.20;99.90;;;;;;5016456;28;20174;-59
2021/11/15 01:23:05;;;;;;;18.10;13.70;;;9.90;99.90;;;;;;5016524;28;20461;-59
2021/11/15 01:25:31;;;;;;;14.80;11.70;;;9.90;99.90;;;;;;5016255;28;21035;-57
2021/11/15 01:27:57;;;;;;;18.73;11.30;;;10.00;99.90;;;;;;5016789;28;20437;-55
2021/11/15 01:30:24;;;;;;;16.63;11.77;;;10.20;99.90;;;;;;5008199;28;20400;-59
2021/11/15 01:32:50;;;;;;;17.70;12.50;;;10.10;99.90;;;;;;4997783;28;20175;-59
2021/11/15 01:35:16;;;;;;;20.90;13.33;;;10.00;99.90;;;;;;5016026;28;20491;-59
2021/11/15 01:37:43;;;;;;;18.53;13.00;;;10.00;99.90;;;;;;5016335;28;20415;-55
2021/11/15 01:40:11;;;;;;;15.50;12.00;;;10.10;99.90;;;;;;5015974;28;20410;-58
2021/11/15 01:42:37;;;;;;;18.70;13.73;;;10.00;99.90;;;;;;5016404;28;20410;-56
2021/11/15 01:45:05;;;;;;;18.63;13.33;;;10.20;99.90;;;;;;5015763;28;20855;-59
2021/11/15 01:47:31;;;;;;;18.40;12.87;;;10.30;99.90;;;;;;5015779;28;20161;-58
2021/11/15 01:49:57;;;;;;;15.30;10.23;;;10.10;99.90;;;;;;5015248;28;20972;-55
2021/11/15 01:52:23;;;;;;;13.43;9.90;;;10.00;99.90;;;;;;5015680;28;20167;-58
2021/11/15 01:54:48;;;;;;;15.07;10.60;;;9.80;99.90;;;;;;5015901;28;20933;-57
2021/11/15 01:57:14;;;;;;;16.80;10.90;;;9.60;99.90;;;;;;5015630;28;20262;-56
2021/11/15 01:59:40;;;;;;;14.97;11.80;;;9.60;99.90;;;;;;5015675;28;20203;-56
2021/11/15 02:02:06;;;;;;;12.23;9.67;;;9.40;99.90;;;;;;5015573;28;20168;-53
2021/11/15 02:04:32;;;;;;;13.50;10.00;;;9.60;99.90;;;;;;5002208;28;21048;-53
2021/11/15 02:06:57;;;;;;;17.03;11.80;;;9.80;99.90;;;;;;5015495;28;20222;-55
2021/11/15 02:09:24;;;;;;;15.23;11.50;;;9.90;99.90;;;;;;5016432;28;20183;-54
2021/11/15 02:11:50;;;;;;;13.23;9.47;;;9.80;99.90;;;;;;5015652;28;20175;-53
2021/11/15 02:14:16;;;;;;;14.33;10.37;;;9.90;99.90;;;;;;5015764;28;20427;-54
2021/11/15 02:16:42;;;;;;;14.23;9.43;;;9.90;99.90;;;;;;5015567;28;20263;-58
2021/11/15 02:19:08;;;;;;;14.10;10.50;;;9.80;99.90;;;;;;5015058;28;20249;-57
2021/11/15 02:21:33;;;;;;;12.07;9.90;;;9.60;99.90;;;;;;5014270;28;20942;-52
2021/11/15 02:23:59;;;;;;;12.03;9.93;;;9.70;99.90;;;;;;5015022;28;20196;-51
2021/11/15 02:26:25;;;;;;;12.17;9.60;;;9.80;99.90;;;;;;5015212;28;20179;-58
2021/11/15 02:28:52;;;;;;;14.70;10.33;;;9.80;99.90;;;;;;5014956;28;20754;-51
2021/11/15 02:31:26;;;;;;;12.83;10.07;;;9.70;99.90;;;;;;5015025;28;20454;-54
2021/11/15 02:33:55;;;;;;;13.03;10.60;;;9.70;99.90;;;;;;5014974;28;20786;-55
2021/11/15 02:36:23;;;;;;;14.43;10.83;;;9.90;99.90;;;;;;4997082;28;20406;-55
2021/11/15 02:38:49;;;;;;;10.30;9.00;;;9.90;99.90;;;;;;5015167;28;20415;-52
2021/11/15 02:41:19;;;;;;;11.83;9.43;;;9.90;99.90;;;;;;5015071;28;20425;-53
2021/11/15 02:43:45;;;;;;;18.87;10.00;;;9.70;99.90;;;;;;5005878;28;20533;-54
2021/11/15 02:46:11;;;;;;;11.73;8.83;;;9.70;99.90;;;;;;4995546;28;20493;-55
2021/11/15 02:48:38;;;;;;;12.83;9.40;;;9.60;99.90;;;;;;4994906;28;20820;-56
2021/11/15 02:51:03;;;;;;;11.87;9.83;;;9.50;99.90;;;;;;4994804;28;20171;-58
2021/11/15 02:53:29;;;;;;;11.30;9.20;;;9.40;99.90;;;;;;4994764;28;20786;-58
2021/11/15 02:55:55;;;;;;;9.80;8.50;;;9.50;99.90;;;;;;4994984;28;20411;-55
2021/11/15 02:58:21;;;;;;;13.57;10.50;;;9.40;99.90;;;;;;4995058;28;20216;-58
2021/11/15 03:00:57;;;;;;;13.70;9.37;;;9.50;99.90;;;;;;4995470;28;20432;-58
2021/11/15 03:03:24;;;;;;;14.90;11.50;;;9.60;99.90;;;;;;5000063;28;20225;-58
2021/11/15 03:05:52;;;;;;;13.47;10.03;;;9.40;99.90;;;;;;5014403;28;20453;-56
2021/11/15 03:08:19;;;;;;;13.10;10.13;;;9.20;99.90;;;;;;5014322;28;20405;-56
2021/11/15 03:10:46;;;;;;;10.77;8.87;;;9.40;99.90;;;;;;5014420;28;20914;-53
2021/11/15 03:13:14;;;;;;;11.93;9.03;;;9.50;99.90;;;;;;5014510;28;20921;-58
2021/11/15 03:15:44;;;;;;;13.37;10.40;;;9.50;99.90;;;;;;5014234;28;20782;-58
2021/11/15 03:18:18;;;;;;;11.40;9.53;;;9.60;99.90;;;;;;5014291;28;20965;-58
2021/11/15 03:20:48;;;;;;;12.00;10.10;;;9.50;99.90;;;;;;5014548;28;20398;-56
2021/11/15 03:23:18;;;;;;;13.40;10.20;;;9.50;99.90;;;;;;5014201;28;20481;-55
2021/11/15 03:25:45;;;;;;;13.80;10.50;;;9.60;99.90;;;;;;5014378;28;20468;-58
2021/11/15 03:28:13;;;;;;;11.33;9.77;;;9.60;99.90;;;;;;5014073;28;20489;-57
2021/11/15 03:30:40;;;;;;;13.57;10.10;;;9.50;99.90;;;;;;5014498;28;20405;-57
2021/11/15 03:33:07;;;;;;;13.40;10.90;;;9.40;99.90;;;;;;5014057;28;20430;-53
2021/11/15 03:35:32;;;;;;;14.67;11.37;;;9.60;99.90;;;;;;5014215;28;20417;-57
2021/11/15 03:37:58;;;;;;;13.73;10.87;;;9.70;99.90;;;;;;5010795;28;20487;-58
2021/11/15 03:40:25;;;;;;;17.17;10.80;;;9.80;99.90;;;;;;5014104;28;20172;-58
2021/11/15 03:42:53;;;;;;;14.27;10.80;;;9.90;99.90;;;;;;5013839;28;20240;-57
2021/11/15 03:45:19;;;;;;;14.00;10.50;;;10.10;99.90;;;;;;4996611;28;20461;-59
2021/11/15 03:47:45;;;;;;;15.10;12.37;;;10.20;99.90;;;;;;5014150;28;20813;-57
2021/11/15 03:50:11;;;;;;;15.20;12.20;;;10.20;99.90;;;;;;5013886;28;20410;-57
2021/11/15 03:52:38;;;;;;;18.70;12.83;;;10.10;99.90;;;;;;5013927;28;20406;-57
2021/11/15 03:55:05;;;;;;;19.47;14.70;;;10.20;99.90;;;;;;5013903;28;20223;-58
2021/11/15 03:57:31;;;;;;;17.77;12.97;;;10.20;99.90;;;;;;5014177;28;20466;-59
2021/11/15 03:59:57;;;;;;;16.77;13.80;;;9.90;99.90;;;;;;5013523;28;20408;-58
2021/11/15 04:02:27;;;;;;;16.23;13.00;;;9.80;99.90;;;;;;5014193;28;20957;-56
2021/11/15 04:04:58;;;;;;;16.87;12.80;;;9.70;99.90;;;;;;5013144;28;20257;-57
2021/11/15 04:07:36;;;;;;;15.17;10.73;;;9.70;99.90;;;;;;5013172;28;20393;-58
2021/11/15 04:10:15;;;;;;;15.17;10.97;;;9.50;99.90;;;;;;5013510;28;20484;-58
2021/11/15 04:12:42;;;;;;;17.23;11.50;;;9.30;99.90;;;;;;5013687;28;20750;-57
2021/11/15 04:15:09;;;;;;;13.77;10.40;;;9.30;99.90;;;;;;5013752;28;20454;-55
2021/11/15 04:17:35;;;;;;;14.10;11.37;;;9.30;99.90;;;;;;4995894;28;20438;-55
2021/11/15 04:20:02;;;;;;;13.57;9.53;;;9.20;99.90;;;;;;5013217;28;20418;-58
2021/11/15 04:22:28;;;;;;;15.20;11.73;;;9.20;99.90;;;;;;5013127;28;20846;-57
2021/11/15 04:24:53;;;;;;;15.53;10.63;;;9.20;99.90;;;;;;5013050;28;20470;-58
2021/11/15 04:27:19;;;;;;;13.10;9.63;;;9.10;99.90;;;;;;5013602;28;20254;-55
2021/11/15 04:29:45;;;;;;;13.50;9.27;;;9.20;99.90;;;;;;5013375;28;20636;-56
2021/11/15 04:32:11;;;;;;;12.23;9.83;;;9.10;99.90;;;;;;5013604;28;20606;-53
2021/11/15 04:34:37;;;;;;;13.90;9.40;;;9.20;99.90;;;;;;5011980;28;20248;-54
2021/11/15 04:37:03;;;;;;;13.43;10.50;;;9.30;99.90;;;;;;5013455;28;20770;-55
2021/11/15 04:39:29;;;;;;;11.80;9.27;;;9.30;99.90;;;;;;5013504;28;20898;-52
2021/11/15 04:41:54;;;;;;;12.37;9.53;;;9.30;99.90;;;;;;5013168;28;20495;-57
2021/11/15 04:44:20;;;;;;;11.70;10.50;;;9.40;99.90;;;;;;5015557;28;20206;-59
2021/11/15 04:46:45;;;;;;;13.63;9.57;;;9.30;99.90;;;;;;5017169;28;20214;-56
2021/11/15 04:49:11;;;;;;;14.70;10.63;;;9.50;99.90;;;;;;5016506;28;20168;-54
2021/11/15 04:51:37;;;;;;;14.00;10.70;;;9.60;99.90;;;;;;5017037;28;20265;-57
2021/11/15 04:54:04;;;;;;;16.07;10.90;;;9.40;99.90;;;;;;5016634;28;20199;-58
2021/11/15 04:56:32;;;;;;;13.73;10.30;;;9.30;99.90;;;;;;5016924;28;20184;-58
2021/11/15 04:58:58;;;;;;;14.27;10.97;;;9.40;99.90;;;;;;5017116;28;20438;-56
2021/11/15 05:01:23;;;;;;;12.90;10.23;;;9.30;99.90;;;;;;5016844;28;20497;-57
2021/11/15 05:03:49;;;;;;;15.10;11.67;;;9.30;99.90;;;;;;5016234;28;20502;-54
2021/11/15 05:06:16;;;;;;;13.53;10.23;;;9.30;99.90;;;;;;5016724;28;20171;-57
2021/11/15 05:08:41;;;;;;;13.97;10.53;;;9.20;99.90;;;;;;5016693;28;20176;-58
2021/11/15 05:11:07;;;;;;;14.47;11.40;;;9.40;99.90;;;;;;5016658;28;20406;-58
2021/11/15 05:13:32;;;;;;;13.97;10.57;;;9.30;99.90;;;;;;5016780;28;20187;-56
2021/11/15 05:15:58;;;;;;;13.50;11.20;;;9.40;99.90;;;;;;5016717;28;20180;-56
2021/11/15 05:18:24;;;;;;;13.60;10.33;;;9.10;99.90;;;;;;4998959;28;20184;-57
2021/11/15 05:20:50;;;;;;;13.07;11.43;;;8.90;99.90;;;;;;5017131;28;20218;-58
2021/11/15 05:23:16;;;;;;;15.10;11.27;;;8.90;99.90;;;;;;5017809;28;20434;-58
2021/11/15 05:25:42;;;;;;;15.03;11.90;;;9.00;99.90;;;;;;5017044;28;20195;-51
2021/11/15 05:28:08;;;;;;;14.07;10.80;;;9.10;99.90;;;;;;5016563;28;20228;-56
2021/11/15 05:30:34;;;;;;;14.47;11.70;;;9.20;99.90;;;;;;5016973;28;20406;-58
2021/11/15 05:33:00;;;;;;;13.80;11.50;;;9.30;99.90;;;;;;5015462;28;20521;-58
2021/11/15 05:35:26;;;;;;;17.63;11.43;;;9.30;99.90;;;;;;5009786;28;20215;-57
2021/11/15 05:37:53;;;;;;;14.73;11.43;;;9.30;99.90;;;;;;5003019;28;20176;-58
2021/11/15 05:40:20;;;;;;;14.63;10.73;;;9.30;99.90;;;;;;4996838;28;20429;-53
2021/11/15 05:42:46;;;;;;;15.13;11.90;;;9.20;99.90;;;;;;4998967;28;20426;-52
2021/11/15 05:45:12;;;;;;;12.10;9.90;;;9.30;99.90;;;;;;5016362;28;20456;-56
2021/11/15 05:47:40;;;;;;;13.60;10.77;;;9.50;99.90;;;;;;5016017;28;20805;-57
2021/11/15 05:50:07;;;;;;;13.87;10.83;;;9.50;99.90;;;;;;5015900;28;20417;-56
2021/11/15 05:52:38;;;;;;;17.30;11.03;;;9.50;99.90;;;;;;5015781;28;20412;-57
2021/11/15 05:55:04;;;;;;;14.47;9.70;;;9.50;99.90;;;;;;5014830;28;20460;-55
2021/11/15 05:57:29;;;;;;;14.00;9.60;;;9.30;99.90;;;;;;5016331;28;20884;-53
2021/11/15 05:59:55;;;;;;;15.30;11.40;;;9.40;99.90;;;;;;5015753;28;20505;-59
2021/11/15 06:02:20;;;;;;;15.13;10.67;;;9.50;99.90;;;;;;5015960;28;20190;-57
2021/11/15 06:04:46;;;;;;;15.13;11.23;;;9.30;99.90;;;;;;5039181;22;20234;-58
2021/11/15 06:07:11;;;;;;;14.60;11.73;;;9.20;99.90;;;;;;5015996;28;20222;-59
2021/11/15 06:09:37;;;;;;;14.47;11.43;;;9.30;99.90;;;;;;5015827;28;20168;-56
2021/11/15 06:12:03;;;;;;;18.60;11.80;;;9.40;99.90;;;;;;5017991;28;20163;-58
2021/11/15 06:14:29;;;;;;;15.00;12.60;;;9.60;99.90;;;;;;5022991;28;20679;-59
2021/11/15 06:16:54;;;;;;;20.40;13.13;;;9.50;99.90;;;;;;5016289;28;20412;-59
2021/11/15 06:19:20;;;;;;;15.27;11.60;;;9.30;99.90;;;;;;5015810;28;20211;-59
2021/11/15 06:21:46;;;;;;;15.77;10.70;;;9.40;99.90;;;;;;5015565;28;20168;-59
2021/11/15 06:24:11;;;;;;;15.40;12.10;;;9.50;99.90;;;;;;5004759;28;20208;-57
2021/11/15 06:26:37;;;;;;;16.40;12.27;;;9.60;99.90;;;;;;4995918;28;20184;-59
2021/11/15 06:29:03;;;;;;;14.03;11.57;;;9.60;99.90;;;;;;4995695;28;20169;-57
2021/11/15 06:31:29;;;;;;;15.77;11.63;;;9.40;99.90;;;;;;4995753;28;20162;-57
2021/11/15 06:33:55;;;;;;;16.20;11.43;;;9.40;99.90;;;;;;4994627;28;20592;-58
2021/11/15 06:36:24;;;;;;;16.53;12.73;;;9.30;99.90;;;;;;4976271;28;20252;-56
2021/11/15 06:38:55;;;;;;;15.83;11.80;;;9.10;99.90;;;;;;4976345;28;20181;-59
2021/11/15 06:41:22;;;;;;;17.20;12.40;;;9.10;99.90;;;;;;4976392;28;20405;-59
2021/11/15 06:43:48;;;;;;;16.47;11.57;;;9.20;99.90;;;;;;4995402;28;20478;-58
2021/11/15 06:46:17;;;;;;;16.50;11.67;;;9.30;99.90;;;;;;4995764;28;20490;-59
2021/11/15 06:48:42;;;;;;;20.00;12.97;;;9.60;99.90;;;;;;5009515;28;20413;-58
2021/11/15 06:51:10;;;;;;;19.00;13.03;;;9.70;99.90;;;;;;5014584;28;20399;-58
2021/11/15 06:53:36;;;;;;;16.30;11.20;;;9.80;99.90;;;;;;4998223;28;20252;-57
2021/11/15 06:56:04;;;;;;;14.80;10.43;;;9.70;99.90;;;;;;5014985;28;20418;-55
2021/11/15 06:58:29;;;;;;;17.60;13.03;;;9.60;99.90;;;;;;5014647;28;20907;-56
2021/11/15 07:00:55;;;;;;;14.73;11.27;;;9.60;99.90;;;;;;5014822;28;20425;-58
2021/11/15 07:03:21;;;;;;;18.40;12.63;;;9.70;99.90;;;;;;5013094;28;20686;-57
2021/11/15 07:05:48;;;;;;;18.47;11.40;;;9.80;99.90;;;;;;5013905;28;20501;-58
2021/11/15 07:08:14;;;;;;;16.53;12.10;;;9.80;99.90;;;;;;5014898;28;20175;-58
2021/11/15 07:10:43;;;;;;;16.60;12.13;;;9.60;99.90;;;;;;5013532;28;20450;-58
2021/11/15 07:13:09;;;;;;;16.00;12.37;;;9.60;99.90;;;;;;5014394;28;20428;-56
2021/11/15 07:15:35;;;;;;;16.10;11.80;;;9.50;99.90;;;;;;5014779;28;20945;-59
2021/11/15 07:18:01;;;;;;;16.40;11.23;;;9.60;99.90;;;;;;5014669;28;20231;-54
2021/11/15 07:20:26;;;;;;;14.90;11.20;;;9.50;99.90;;;;;;5014151;28;20252;-58
2021/11/15 07:22:52;;;;;;;18.13;11.90;;;9.40;99.90;;;;;;5014581;28;20446;-58
2021/11/15 07:25:19;;;;;;;20.27;12.70;;;9.50;99.90;;;;;;5014294;28;20690;-57
2021/11/15 07:27:49;;;;;;;18.83;14.23;;;9.70;99.90;;;;;;5015817;28;20199;-57
2021/11/15 07:30:15;;;;;;;19.93;14.30;;;9.50;99.90;;;;;;5014391;28;20410;-58
2021/11/15 07:32:41;;;;;;;15.47;12.60;;;9.40;99.90;;;;;;5014252;28;20429;-58
2021/11/15 07:35:08;;;;;;;16.40;11.80;;;9.50;99.90;;;;;;5013675;28;20437;-59
2021/11/15 07:37:35;;;;;;;15.90;11.43;;;9.70;99.90;;;;;;5014013;28;20259;-59
2021/11/15 07:40:06;;;;;;;15.80;11.37;;;9.80;99.90;;;;;;5014062;28;20403;-58
2021/11/15 07:42:32;;;;;;;17.90;12.63;;;9.70;99.90;;;;;;5010447;28;20391;-59
2021/11/15 07:44:57;;;;;;;15.20;12.70;;;9.70;99.90;;;;;;4992625;28;20489;-58
2021/11/15 07:47:23;;;;;;;17.23;12.70;;;9.80;99.90;;;;;;4994288;28;20421;-56
2021/11/15 07:49:49;;;;;;;14.07;11.80;;;9.70;99.90;;;;;;4994069;28;20171;-59
2021/11/15 07:52:16;;;;;;;17.90;12.87;;;9.50;99.90;;;;;;4994506;28;20175;-59
2021/11/15 07:54:43;;;;;;;18.80;13.40;;;9.40;99.90;;;;;;4994251;28;20438;-59
2021/11/15 07:57:09;;;;;;;15.87;11.97;;;9.40;99.90;;;;;;4994062;28;20423;-59
2021/11/15 07:59:35;;;;;;;16.87;13.20;;;9.40;99.90;;;;;;4993548;28;20505;-57
2021/11/15 08:02:01;;;;;;;18.60;14.03;;;9.30;99.90;;;;;;4994306;28;20912;-57
2021/11/15 08:04:27;;;;;;;17.80;12.53;;;9.30;99.90;;;;;;5007216;28;20470;-58
2021/11/15 08:06:52;;;;;;;17.30;11.90;;;9.40;99.90;;;;;;5013742;28;20213;-58
2021/11/15 08:09:18;;;;;;;16.17;12.00;;;9.40;99.90;;;;;;5013933;28;20188;-59
2021/11/15 08:11:45;;;;;;;16.77;12.73;;;9.60;99.90;;;;;;5014085;28;20236;-59
2021/11/15 08:14:13;;;;;;;15.80;11.90;;;9.60;99.90;;;;;;5013567;28;20218;-59
2021/11/15 08:16:39;;;;;;;19.30;12.97;;;9.80;99.90;;;;;;5014408;28;20419;-59
2021/11/15 08:19:04;;;;;;;16.30;12.20;;;10.00;99.90;;;;;;5012698;28;20839;-58
2021/11/15 08:21:30;;;;;;;14.53;11.70;;;10.10;99.90;;;;;;5013541;28;20498;-57
2021/11/15 08:24:18;;;;;;;13.50;10.97;;;10.20;99.90;;;;;;5013845;28;20195;-58
2021/11/15 08:27:00;;;;;;;15.80;12.60;;;10.20;99.90;;;;;;5013423;28;20153;-57
2021/11/15 08:29:27;;;;;;;15.00;11.93;;;9.90;99.90;;;;;;4982947;28;20439;-57
2021/11/15 08:38:57;;;;;;;19.27;14.40;;;9.70;99.90;;;;;;4974686;28;20356;-58
2021/11/15 08:41:36;;;;;;;15.10;11.60;;;9.70;99.90;;;;;;4974672;28;20392;-58
2021/11/15 08:44:05;;;;;;;16.97;12.07;;;9.70;99.90;;;;;;4974567;28;20411;-56
2021/11/15 08:46:32;;;;;;;15.80;11.77;;;9.60;99.90;;;;;;4974454;28;20436;-58
2021/11/15 08:49:00;;;;;;;15.53;12.00;;;9.70;99.90;;;;;;4985573;28;20436;-54
2021/11/15 08:51:26;;;;;;;18.33;13.30;;;9.80;99.90;;;;;;4973778;28;20417;-56
2021/11/15 08:53:55;;;;;;;17.13;12.57;;;9.90;99.90;;;;;;4982505;28;20802;-58
2021/11/15 08:56:22;;;;;;;16.70;12.37;;;9.80;99.90;;;;;;5012974;28;20449;-59
2021/11/15 08:58:48;;;;;;;18.50;12.93;;;9.80;99.90;;;;;;5011912;28;20403;-59
2021/11/15 09:01:15;;;;;;;16.97;13.77;;;9.70;99.90;;;;;;4997482;28;20442;-59
2021/11/15 09:03:42;;;;;;;18.77;15.77;;;9.90;99.90;;;;;;4992393;28;20466;-59
2021/11/15 09:06:09;;;;;;;16.77;13.70;;;10.10;99.90;;;;;;4992919;28;20454;-60
2021/11/15 09:08:37;;;;;;;19.87;13.40;;;10.30;99.90;;;;;;5013166;28;20459;-59
2021/11/15 09:11:04;;;;;;;16.27;12.80;;;10.20;99.90;;;;;;5013130;28;20778;-58
2021/11/15 09:13:29;;;;;;;17.73;13.23;;;9.90;99.90;;;;;;5013533;28;20824;-56
2021/11/15 09:15:55;;;;;;;18.20;13.27;;;9.80;99.90;;;;;;5013401;28;20462;-56
2021/11/15 09:18:21;;;;;;;16.57;12.30;;;9.70;99.90;;;;;;5013736;28;20176;-55
2021/11/15 09:20:47;;;;;;;16.17;13.43;;;9.50;99.90;;;;;;5018347;28;20165;-58
2021/11/15 09:23:12;;;;;;;19.80;13.30;;;9.50;99.90;;;;;;5015735;28;20218;-57
2021/11/15 09:25:40;;;;;;;15.83;12.00;;;9.50;99.90;;;;;;5016417;28;20579;-56
2021/11/15 09:28:07;;;;;;;19.00;12.60;;;9.40;99.90;;;;;;5016792;28;20210;-56
2021/11/15 09:30:33;;;;;;;16.27;12.33;;;9.30;99.90;;;;;;5018714;28;20426;-59
2021/11/15 09:32:59;;;;;;;17.10;12.80;;;9.30;99.90;;;;;;5017229;28;20407;-57
2021/11/15 09:35:24;;;;;;;17.13;12.03;;;9.50;99.90;;;;;;5017361;28;20486;-58
2021/11/15 09:37:50;;;;;;;18.10;13.87;;;9.60;99.90;;;;;;5016372;28;20176;-59
2021/11/15 09:40:15;;;;;;;18.73;14.10;;;9.40;99.90;;;;;;4996704;28;20176;-56
2021/11/15 09:42:41;;;;;;;13.00;10.33;;;9.50;99.90;;;;;;4999650;28;20171;-58
2021/11/15 09:45:07;;;;;;;16.60;12.60;;;9.60;99.90;;;;;;5004767;28;20288;-58
2021/11/15 09:47:36;;;;;;;16.80;12.17;;;9.60;99.90;;;;;;5000714;28;20167;-57
2021/11/15 09:50:03;;;;;;;17.57;12.60;;;9.70;99.90;;;;;;4998091;28;20779;-59
2021/11/15 09:52:28;;;;;;;15.17;12.20;;;10.00;99.90;;;;;;4997897;28;20436;-59
2021/11/15 09:54:54;;;;;;;17.70;13.17;;;10.00;99.90;;;;;;4998363;28;20427;-58
2021/11/15 09:57:20;;;;;;;15.03;11.40;;;9.80;99.90;;;;;;5003269;28;20227;-56
2021/11/15 09:59:46;;;;;;;19.90;13.33;;;9.90;99.90;;;;;;5002492;28;20414;-59
2021/11/15 10:02:12;;;;;;;18.67;14.23;;;9.70;99.90;;;;;;5000170;28;20172;-59
2021/11/15 10:04:39;;;;;;;17.13;13.00;;;9.50;99.90;;;;;;4998157;28;20212;-56
2021/11/15 10:07:04;;;;;;;16.70;12.33;;;9.60;99.90;;;;;;5005818;28;20489;-59
2021/11/15 10:09:33;;;;;;;16.57;12.87;;;9.70;99.90;;;;;;5018449;28;20946;-59
2021/11/15 10:12:08;;;;;;;18.20;12.60;;;9.70;99.90;;;;;;5022569;28;20169;-56
2021/11/15 10:14:34;;;;;;;15.33;12.90;;;9.70;99.90;;;;;;5021243;28;20961;-59
2021/11/15 10:17:02;;;;;;;18.60;12.87;;;9.90;99.90;;;;;;5017295;28;20414;-58
2021/11/15 10:19:30;;;;;;;15.90;13.50;;;10.00;99.90;;;;;;5019818;28;20499;-58
2021/11/15 10:21:59;;;;;;;17.33;12.13;;;10.00;99.90;;;;;;5018262;28;20504;-59
2021/11/15 10:24:31;;;;;;;13.63;12.03;;;9.90;99.90;;;;;;4995107;28;20463;-59
2021/11/15 10:27:10;;;;;;;20.43;12.90;;;10.10;99.90;;;;;;4990095;28;20480;-60
2021/11/15 10:29:39;;;;;;;14.17;11.20;;;10.20;99.90;;;;;;4998778;28;20480;-59
2021/11/15 10:32:06;;;;;;;18.03;13.23;;;10.10;99.90;;;;;;4998416;28;20408;-60
2021/11/15 10:34:41;;;;;;;15.43;11.83;;;9.90;99.90;;;;;;4997582;28;20432;-58
2021/11/15 10:37:27;;;;;;;14.17;12.20;;;10.00;99.90;;;;;;5004328;28;20407;-58
2021/11/15 10:40:07;;;;;;;16.60;13.30;;;9.90;99.90;;;;;;5014750;28;20819;-59
2021/11/15 10:42:46;;;;;;;15.60;12.50;;;10.00;99.90;;;;;;5014528;28;20486;-59
2021/11/15 10:45:14;;;;;;;17.00;12.93;;;9.80;99.90;;;;;;5014460;28;20879;-59
2021/11/15 10:47:58;;;;;;;18.13;13.67;;;9.70;99.90;;;;;;5014109;28;20476;-58
2021/11/15 10:50:28;;;;;;;19.10;13.50;;;9.80;99.90;;;;;;5015387;28;20435;-59
2021/11/15 10:53:08;;;;;;;14.90;13.20;;;10.00;99.90;;;;;;5015398;28;20391;-57
2021/11/15 10:55:38;;;;;;;17.93;12.63;;;10.20;99.90;;;;;;4976413;28;20392;-59
2021/11/15 10:58:37;;;;;;;16.97;13.17;;;10.20;99.90;;;;;;4975053;28;20448;-56
2021/11/15 11:01:05;;;;;;;19.10;14.10;;;10.10;99.90;;;;;;4976691;28;20460;-59
2021/11/15 11:03:31;;;;;;;26.50;14.80;;;10.00;99.90;;;;;;4975523;28;20551;-59
2021/11/15 11:06:02;;;;;;;18.07;14.07;;;10.00;99.90;;;;;;4976258;28;20944;-58
2021/11/15 11:08:39;;;;;;;19.83;15.60;;;9.80;99.90;;;;;;4975337;28;20405;-59
2021/11/15 11:11:12;;;;;;;17.73;15.20;;;9.80;99.90;;;;;;4975927;28;20382;-58
2021/11/15 11:14:00;;;;;;;21.87;16.10;;;9.80;99.90;;;;;;4975994;28;20441;-54
2021/11/15 11:16:39;;;;;;;21.60;16.40;;;9.80;99.90;;;;;;4975970;28;20397;-60
2021/11/15 11:19:29;;;;;;;22.70;16.90;;;9.90;99.90;;;;;;4975834;28;20421;-58
2021/11/15 11:27:17;;;;;;;22.83;17.37;;;10.10;99.90;;;;;;4998980;28;20434;-60
2021/11/15 11:29:52;;;;;;;23.57;17.60;;;10.10;99.90;;;;;;4989980;28;20460;-58
2021/11/15 11:32:22;;;;;;;20.93;17.70;;;10.00;99.90;;;;;;4994736;28;20408;-60
2021/11/15 11:34:50;;;;;;;24.33;17.67;;;10.00;99.90;;;;;;4993614;28;20443;-59
2021/11/15 11:37:18;;;;;;;20.10;15.10;;;10.20;99.90;;;;;;4991370;28;20419;-59
2021/11/15 11:39:45;;;;;;;20.13;15.47;;;10.40;99.90;;;;;;4994769;28;20407;-59
2021/11/15 11:42:14;;;;;;;21.60;15.60;;;10.30;99.90;;;;;;4994829;28;20463;-59
2021/11/15 11:44:39;;;;;;;21.03;16.30;;;10.50;99.90;;;;;;4994562;28;20461;-60
2021/11/15 11:47:09;;;;;;;18.80;15.10;;;10.30;99.90;;;;;;4994277;28;20418;-57
2021/11/15 11:49:36;;;;;;;20.70;15.90;;;10.10;99.90;;;;;;4994548;28;20625;-58
2021/11/15 11:52:10;;;;;;;24.10;17.90;;;10.10;99.90;;;;;;4990647;28;20499;-59
2021/11/15 11:54:42;;;;;;;21.30;17.40;;;10.10;99.90;;;;;;4999905;28;20446;-58
2021/11/15 11:57:29;;;;;;;23.23;17.30;;;10.10;99.90;;;;;;4994665;28;20749;-57
2021/11/15 11:59:55;;;;;;;19.03;16.17;;;10.20;99.90;;;;;;4994424;28;20391;-59
2021/11/15 12:02:23;;;;;;;19.53;16.73;;;10.10;99.90;;;;;;4994892;28;20816;-59
2021/11/15 12:05:04;;;;;;;22.47;16.83;;;10.00;99.90;;;;;;5013682;23;20679;-56
2021/11/15 12:07:32;;;;;;;25.70;18.00;;;9.80;99.90;;;;;;5013525;28;20414;-57
2021/11/15 12:10:00;;;;;;;17.20;14.40;;;9.70;99.90;;;;;;5012425;28;20907;-53
2021/11/15 12:12:26;;;;;;;21.00;15.90;;;10.00;99.90;;;;;;5013354;28;20896;-58
2021/11/15 12:14:52;;;;;;;20.50;16.47;;;10.00;99.90;;;;;;5007883;28;20427;-58
2021/11/15 12:17:21;;;;;;;22.53;16.50;;;9.90;99.90;;;;;;4993746;28;20436;-56
2021/11/15 12:19:53;;;;;;;20.97;15.07;;;9.70;99.90;;;;;;4993480;28;20887;-58
2021/11/15 12:22:22;;;;;;;23.63;16.30;;;9.80;99.90;;;;;;4994340;28;20408;-57
2021/11/15 12:25:21;;;;;;;22.87;16.40;;;10.00;99.90;;;;;;4993451;28;20459;-55
2021/11/15 12:27:53;;;;;;;32.13;23.93;;;9.90;99.90;;;;;;4993911;28;20772;-54
2021/11/15 12:30:22;;;;;;;23.17;18.00;;;9.90;99.90;;;;;;4993963;28;20411;-57
2021/11/15 12:33:16;;;;;;;20.90;15.10;;;9.90;99.90;;;;;;4994071;28;20404;-55
2021/11/15 12:35:57;;;;;;;18.60;15.20;;;9.90;99.90;;;;;;4993279;28;20427;-55
2021/11/15 12:38:45;;;;;;;21.63;17.03;;;10.00;99.90;;;;;;4993600;28;20384;-58
2021/11/15 12:41:17;;;;;;;20.23;16.83;;;10.00;99.90;;;;;;4993639;28;20419;-57
2021/11/15 12:44:01;;;;;;;21.33;16.50;;;9.90;99.90;;;;;;4993768;28;20947;-59
2021/11/15 12:46:50;;;;;;;21.20;16.50;;;9.90;99.90;;;;;;4993679;28;20431;-54
2021/11/15 12:49:22;;;;;;;24.73;18.00;;;9.80;99.90;;;;;;4993236;28;20473;-58
2021/11/15 12:52:09;;;;;;;21.13;16.37;;;9.80;99.90;;;;;;4993129;28;20405;-58
2021/11/15 12:54:35;;;;;;;21.77;17.47;;;9.70;99.90;;;;;;4986643;28;20526;-52